createdAt,value
2019-05-30T00:00:45.667Z,9.17
2019-05-30T00:03:13.032Z,9.16
2019-05-30T00:05:40.282Z,9.16
2019-05-30T00:08:07.499Z,9.14
2019-05-30T00:10:34.710Z,9.11
2019-05-30T00:13:02.851Z,9.06
2019-05-30T00:15:30.166Z,9.05
2019-05-30T00:17:58.736Z,9.03
2019-05-30T00:20:25.857Z,9.01
2019-05-30T00:22:52.947Z,8.99
2019-05-30T00:25:20.513Z,8.96
2019-05-30T00:27:49.108Z,8.93
2019-05-30T00:30:24.478Z,8.92
2019-05-30T00:32:46.139Z,8.91
2019-05-30T00:35:13.383Z,8.89
2019-05-30T00:37:40.455Z,8.89
2019-05-30T00:40:08.458Z,8.86
2019-05-30T00:42:37.463Z,8.84
2019-05-30T00:45:19.681Z,8.80
2019-05-30T00:47:38.152Z,8.76
2019-05-30T00:50:06.703Z,8.75
2019-05-30T00:52:34.298Z,8.75
2019-05-30T00:55:02.971Z,8.70
2019-05-30T00:57:30.229Z,8.68
2019-05-30T00:59:58.690Z,8.64
2019-05-30T01:02:27.107Z,8.60
2019-05-30T01:04:54.210Z,8.58
2019-05-30T01:07:21.285Z,8.54
2019-05-30T01:09:48.627Z,8.51
2019-05-30T01:12:17.084Z,8.50
2019-05-30T01:14:44.296Z,8.47
2019-05-30T01:17:11.622Z,8.44
2019-05-30T01:19:38.918Z,8.42
2019-05-30T01:22:07.589Z,8.40
2019-05-30T01:24:34.939Z,8.35
2019-05-30T01:27:03.428Z,8.33
2019-05-30T01:29:31.083Z,8.31
2019-05-30T01:32:01.584Z,8.29
2019-05-30T01:34:28.687Z,8.25
2019-05-30T01:36:56.056Z,8.24
2019-05-30T01:39:23.200Z,8.23
2019-05-30T01:41:50.320Z,8.22
2019-05-30T01:44:17.457Z,8.21
2019-05-30T01:46:44.818Z,8.20
2019-05-30T01:49:12.183Z,8.17
2019-05-30T01:51:39.457Z,8.15
2019-05-30T01:54:06.681Z,8.14
2019-05-30T01:56:33.759Z,8.13
2019-05-30T01:59:00.893Z,8.11
2019-05-30T02:01:27.999Z,8.11
2019-05-30T02:03:55.319Z,8.11
2019-05-30T02:06:22.616Z,8.10
2019-05-30T02:08:50.878Z,8.10
2019-05-30T02:11:17.977Z,8.11
2019-05-30T02:13:45.298Z,8.13
2019-05-30T02:16:13.849Z,8.15
2019-05-30T02:18:41.019Z,8.15
2019-05-30T02:21:08.386Z,8.16
2019-05-30T02:23:37.453Z,8.17
2019-05-30T02:26:06.302Z,8.18
2019-05-30T02:28:33.555Z,8.17
2019-05-30T02:31:02.948Z,8.17
2019-05-30T02:33:30.122Z,8.17
2019-05-30T02:35:57.216Z,8.18
2019-05-30T02:38:25.517Z,8.19
2019-05-30T02:40:54.392Z,8.18
2019-05-30T02:43:23.408Z,8.18
2019-05-30T02:45:50.606Z,8.18
2019-05-30T02:48:17.919Z,8.17
2019-05-30T02:50:45.014Z,8.18
2019-05-30T02:53:13.015Z,8.22
2019-05-30T02:55:41.211Z,8.25
2019-05-30T02:58:10.258Z,8.27
2019-05-30T03:00:37.479Z,8.26
2019-05-30T03:03:06.712Z,8.29
2019-05-30T03:05:33.788Z,8.32
2019-05-30T03:08:02.092Z,8.35
2019-05-30T03:10:30.284Z,8.39
2019-05-30T03:12:57.467Z,8.40
2019-05-30T03:15:25.178Z,8.41
2019-05-30T03:17:52.252Z,8.44
2019-05-30T03:20:23.261Z,8.46
2019-05-30T03:22:48.404Z,8.49
2019-05-30T03:25:16.252Z,8.49
2019-05-30T03:27:43.716Z,8.54
2019-05-30T03:30:22.286Z,8.59
2019-05-30T03:33:05.440Z,8.62
2019-05-30T03:35:21.596Z,8.67
2019-05-30T03:37:41.468Z,8.71
2019-05-30T03:40:08.810Z,8.76
2019-05-30T03:42:35.881Z,8.80
2019-05-30T03:45:04.776Z,8.85
2019-05-30T03:47:34.920Z,8.87
2019-05-30T03:50:05.151Z,8.93
2019-05-30T03:52:32.271Z,8.97
2019-05-30T03:54:59.654Z,9.04
2019-05-30T03:57:31.438Z,9.07
2019-05-30T04:00:05.851Z,9.13
2019-05-30T04:02:56.186Z,9.18
2019-05-30T04:05:19.335Z,9.20
2019-05-30T04:07:50.612Z,9.22
2019-05-30T04:10:21.370Z,9.28
2019-05-30T04:13:31.645Z,9.29
2019-05-30T04:15:58.729Z,9.33
2019-05-30T04:18:25.820Z,9.38
2019-05-30T04:20:52.936Z,9.41
2019-05-30T04:23:21.921Z,9.44
2019-05-30T04:25:48.980Z,9.46
2019-05-30T04:28:16.407Z,9.49
2019-05-30T04:30:45.129Z,9.56
2019-05-30T04:33:25.134Z,9.61
2019-05-30T04:35:41.216Z,9.63
2019-05-30T04:38:08.624Z,9.65
2019-05-30T04:40:36.958Z,9.68
2019-05-30T04:43:04.035Z,9.73
2019-05-30T04:45:31.162Z,9.78
2019-05-30T04:47:58.237Z,9.80
2019-05-30T04:50:25.371Z,9.87
2019-05-30T04:52:52.452Z,9.93
2019-05-30T04:55:21.085Z,10.00
2019-05-30T04:57:48.647Z,10.04
2019-05-30T05:00:17.137Z,10.05
2019-05-30T05:02:44.269Z,10.09
2019-05-30T05:05:13.220Z,10.14
2019-05-30T05:07:40.603Z,10.19
2019-05-30T05:10:07.895Z,10.23
2019-05-30T05:12:34.997Z,10.29
2019-05-30T05:15:02.076Z,10.38
2019-05-30T05:17:29.190Z,10.49
2019-05-30T05:19:57.485Z,10.57
2019-05-30T05:22:24.527Z,10.64
2019-05-30T05:24:52.827Z,10.70
2019-05-30T05:27:19.919Z,10.77
2019-05-30T05:29:46.996Z,10.86
2019-05-30T05:32:14.564Z,10.93
2019-05-30T05:34:41.819Z,10.99
2019-05-30T05:37:10.812Z,11.05
2019-05-30T05:39:39.228Z,11.12
2019-05-30T05:42:06.700Z,11.25
2019-05-30T05:44:33.847Z,11.38
2019-05-30T05:47:02.173Z,11.48
2019-05-30T05:49:29.252Z,11.56
2019-05-30T05:51:57.487Z,11.63
2019-05-30T05:54:25.054Z,11.68
2019-05-30T05:56:52.270Z,11.73
2019-05-30T05:59:19.394Z,11.75
2019-05-30T06:01:46.523Z,11.77
2019-05-30T06:04:13.945Z,11.78
2019-05-30T06:06:41.226Z,11.81
2019-05-30T06:09:08.783Z,11.88
2019-05-30T06:11:36.922Z,11.91
2019-05-30T06:14:04.182Z,11.95
2019-05-30T06:16:31.390Z,11.99
2019-05-30T06:18:58.469Z,12.00
2019-05-30T06:21:25.654Z,12.05
2019-05-30T06:23:52.751Z,12.14
2019-05-30T06:26:20.059Z,12.18
2019-05-30T06:28:47.200Z,12.26
2019-05-30T06:31:14.367Z,12.32
2019-05-30T06:33:41.519Z,12.38
2019-05-30T06:36:09.915Z,12.49
2019-05-30T06:38:37.542Z,12.59
2019-05-30T06:41:04.629Z,12.64
2019-05-30T06:43:31.833Z,12.69
2019-05-30T06:45:58.935Z,12.77
2019-05-30T06:48:26.832Z,12.84
2019-05-30T06:50:55.918Z,12.92
2019-05-30T06:53:23.324Z,13.02
2019-05-30T06:55:50.486Z,13.05
2019-05-30T06:58:17.626Z,13.09
2019-05-30T07:00:44.889Z,13.17
2019-05-30T07:03:12.452Z,13.22
2019-05-30T07:05:40.264Z,13.27
2019-05-30T07:08:07.805Z,13.31
2019-05-30T07:10:34.948Z,13.34
2019-05-30T07:13:02.217Z,13.39
2019-05-30T07:15:31.391Z,13.41
2019-05-30T07:17:58.669Z,13.46
2019-05-30T07:20:25.751Z,13.51
2019-05-30T07:22:52.917Z,13.58
2019-05-30T07:25:21.628Z,13.65
2019-05-30T07:27:48.717Z,13.73
2019-05-30T07:30:17.087Z,13.79
2019-05-30T07:32:44.303Z,13.81
2019-05-30T07:35:11.593Z,13.91
2019-05-30T07:37:38.674Z,14.00
2019-05-30T07:40:06.613Z,14.13
2019-05-30T07:42:34.884Z,14.25
2019-05-30T07:45:02.245Z,14.37
2019-05-30T07:47:30.163Z,14.46
2019-05-30T07:49:57.434Z,14.54
2019-05-30T07:52:24.689Z,14.60
2019-05-30T07:54:51.770Z,14.67
2019-05-30T07:57:19.280Z,14.74
2019-05-30T07:59:46.540Z,14.77
2019-05-30T08:02:13.718Z,14.84
2019-05-30T08:04:40.932Z,14.86
2019-05-30T08:07:08.034Z,14.83
2019-05-30T08:09:35.160Z,14.77
2019-05-30T08:12:02.301Z,14.71
2019-05-30T08:14:29.425Z,14.65
2019-05-30T08:16:56.607Z,14.71
2019-05-30T08:19:24.963Z,14.72
2019-05-30T08:21:52.104Z,14.76
2019-05-30T08:24:19.175Z,14.86
2019-05-30T08:26:46.255Z,14.96
2019-05-30T08:29:13.345Z,15.02
2019-05-30T08:31:40.430Z,15.05
2019-05-30T08:34:09.426Z,15.15
2019-05-30T08:36:37.092Z,15.19
2019-05-30T08:39:06.205Z,15.22
2019-05-30T08:41:33.269Z,15.24
2019-05-30T08:44:00.339Z,15.26
2019-05-30T08:46:27.423Z,15.33
2019-05-30T08:48:54.595Z,15.40
2019-05-30T08:51:21.680Z,15.50
2019-05-30T08:53:48.767Z,15.61
2019-05-30T08:56:15.940Z,15.68
2019-05-30T08:58:43.108Z,15.80
2019-05-30T09:01:10.283Z,15.92
2019-05-30T09:03:38.475Z,15.97
2019-05-30T09:06:05.860Z,16.03
2019-05-30T09:08:32.961Z,16.08
2019-05-30T09:11:00.027Z,16.11
2019-05-30T09:13:27.243Z,16.13
2019-05-30T09:15:54.330Z,16.14
2019-05-30T09:18:21.538Z,16.13
2019-05-30T09:20:48.742Z,16.16
2019-05-30T09:23:16.974Z,16.24
2019-05-30T09:25:46.878Z,16.33
2019-05-30T09:28:13.078Z,16.43
2019-05-30T09:30:41.589Z,16.34
2019-05-30T09:33:09.499Z,16.15
2019-05-30T09:35:38.498Z,16.13
2019-05-30T09:38:06.967Z,16.09
2019-05-30T09:40:34.241Z,16.18
2019-05-30T09:43:01.374Z,16.31
2019-05-30T09:45:31.044Z,16.48
2019-05-30T09:47:58.277Z,16.57
2019-05-30T09:50:25.354Z,16.57
2019-05-30T09:52:54.235Z,16.70
2019-05-30T09:55:23.876Z,16.79
2019-05-30T09:57:51.724Z,16.91
2019-05-30T10:00:19.713Z,17.07
2019-05-30T10:02:48.549Z,17.22
2019-05-30T10:05:17.215Z,17.37
2019-05-30T10:07:45.475Z,17.47
2019-05-30T10:10:14.791Z,17.45
2019-05-30T10:12:42.035Z,17.60
2019-05-30T10:15:13.058Z,17.62
2019-05-30T10:17:40.427Z,17.51
2019-05-30T10:20:09.628Z,17.56
2019-05-30T10:22:36.932Z,17.69
2019-05-30T10:25:04.815Z,17.74
2019-05-30T10:27:31.925Z,17.78
2019-05-30T10:29:59.148Z,17.87
2019-05-30T10:32:26.226Z,17.99
2019-05-30T10:34:53.954Z,18.03
2019-05-30T10:37:21.145Z,17.73
2019-05-30T10:39:49.179Z,17.39
2019-05-30T10:42:16.505Z,17.15
2019-05-30T10:44:51.044Z,17.19
2019-05-30T10:47:18.489Z,17.32
2019-05-30T10:49:48.044Z,17.58
2019-05-30T10:52:15.527Z,17.73
2019-05-30T10:54:45.010Z,17.89
2019-05-30T10:57:13.362Z,18.10
2019-05-30T10:59:42.604Z,18.12
2019-05-30T11:02:10.924Z,18.22
2019-05-30T11:04:40.219Z,18.27
2019-05-30T11:07:18.720Z,18.36
2019-05-30T11:09:51.150Z,18.43
2019-05-30T11:12:18.414Z,18.40
2019-05-30T11:14:45.469Z,18.36
2019-05-30T11:17:12.562Z,18.32
2019-05-30T11:19:39.805Z,18.19
2019-05-30T11:22:08.050Z,18.16
2019-05-30T11:24:35.217Z,18.10
2019-05-30T11:27:02.566Z,18.06
2019-05-30T11:29:29.799Z,18.13
2019-05-30T11:31:59.049Z,18.23
2019-05-30T11:34:26.564Z,18.31
2019-05-30T11:36:53.613Z,18.44
2019-05-30T11:39:21.892Z,18.58
2019-05-30T11:41:49.260Z,18.75
2019-05-30T11:44:16.326Z,18.79
2019-05-30T11:46:43.435Z,18.75
2019-05-30T11:49:10.759Z,18.81
2019-05-30T11:51:38.557Z,18.71
2019-05-30T11:54:06.264Z,18.62
2019-05-30T11:56:33.343Z,18.59
2019-05-30T11:59:00.431Z,18.53
2019-05-30T12:01:27.591Z,18.38
2019-05-30T12:03:54.660Z,18.39
2019-05-30T12:06:22.497Z,18.29
2019-05-30T12:08:50.684Z,18.17
2019-05-30T12:11:18.184Z,17.89
2019-05-30T12:13:45.260Z,17.58
2019-05-30T12:16:12.389Z,17.39
2019-05-30T12:18:39.531Z,17.24
2019-05-30T12:21:06.859Z,17.10
2019-05-30T12:23:35.780Z,16.91
2019-05-30T12:26:03.445Z,16.79
2019-05-30T12:28:30.536Z,16.62
2019-05-30T12:31:02.686Z,16.57
2019-05-30T12:33:26.867Z,16.61
2019-05-30T12:35:54.452Z,16.60
2019-05-30T12:38:21.750Z,16.53
2019-05-30T12:40:48.881Z,16.21
2019-05-30T12:43:16.477Z,15.97
2019-05-30T12:45:45.011Z,15.90
2019-05-30T12:48:12.096Z,15.94
2019-05-30T12:50:39.187Z,15.95
2019-05-30T12:53:08.160Z,15.84
2019-05-30T12:55:37.523Z,15.77
2019-05-30T12:58:05.426Z,15.74
2019-05-30T13:00:33.642Z,15.69
2019-05-30T13:03:01.095Z,15.68
2019-05-30T13:05:29.994Z,15.61
2019-05-30T13:08:11.725Z,15.39
2019-05-30T13:10:27.558Z,15.31
2019-05-30T13:12:55.578Z,15.16
2019-05-30T13:15:22.979Z,15.11
2019-05-30T13:17:50.103Z,15.01
2019-05-30T13:20:17.576Z,14.95
2019-05-30T13:22:44.655Z,14.84
2019-05-30T13:25:14.312Z,14.74
2019-05-30T13:27:41.424Z,14.56
2019-05-30T13:30:09.512Z,14.49
2019-05-30T13:32:36.596Z,14.39
2019-05-30T13:35:05.437Z,14.40
2019-05-30T13:37:32.869Z,14.40
2019-05-30T13:40:00.086Z,14.45
2019-05-30T13:42:27.290Z,14.46
2019-05-30T13:44:55.681Z,14.51
2019-05-30T13:47:22.875Z,14.50
2019-05-30T13:49:49.968Z,14.41
2019-05-30T13:52:18.346Z,14.34
2019-05-30T13:54:45.499Z,14.21
2019-05-30T13:57:12.608Z,14.13
2019-05-30T13:59:39.735Z,14.15
2019-05-30T14:02:08.026Z,14.22
2019-05-30T14:04:37.099Z,14.26
2019-05-30T14:07:04.284Z,14.35
2019-05-30T14:09:32.024Z,14.39
2019-05-30T14:12:00.335Z,14.42
2019-05-30T14:14:27.765Z,14.43
2019-05-30T14:16:54.872Z,14.42
2019-05-30T14:19:25.032Z,14.40
2019-05-30T14:21:50.923Z,14.36
2019-05-30T14:24:18.002Z,14.30
2019-05-30T14:26:46.291Z,14.19
2019-05-30T14:29:13.476Z,14.22
2019-05-30T14:31:44.404Z,14.26
2019-05-30T14:34:12.228Z,14.30
2019-05-30T14:36:39.534Z,14.28
2019-05-30T14:39:06.980Z,14.28
2019-05-30T14:41:34.038Z,14.15
2019-05-30T14:44:01.113Z,14.22
2019-05-30T14:46:29.591Z,14.20
2019-05-30T14:48:58.558Z,14.21
2019-05-30T14:51:26.976Z,14.25
2019-05-30T14:53:54.105Z,14.22
2019-05-30T14:56:21.321Z,14.15
2019-05-30T14:58:48.461Z,14.03
2019-05-30T15:01:15.564Z,14.06
2019-05-30T15:03:43.745Z,14.10
2019-05-30T15:06:13.282Z,14.17
2019-05-30T15:08:39.830Z,14.14
2019-05-30T15:11:07.457Z,14.15
2019-05-30T15:13:34.972Z,14.13
2019-05-30T15:16:02.152Z,14.09
2019-05-30T15:18:31.291Z,14.10
2019-05-30T15:20:58.440Z,14.04
2019-05-30T15:23:25.542Z,14.04
2019-05-30T15:25:52.721Z,13.96
2019-05-30T15:28:19.997Z,14.01
2019-05-30T15:30:47.090Z,14.01
2019-05-30T15:33:14.525Z,14.02
2019-05-30T15:35:43.088Z,14.00
2019-05-30T15:38:10.804Z,13.99
2019-05-30T15:40:38.215Z,13.93
2019-05-30T15:43:05.535Z,13.97
2019-05-30T15:45:32.850Z,13.96
2019-05-30T15:48:01.830Z,13.98
2019-05-30T15:50:28.911Z,13.95
2019-05-30T15:52:58.970Z,13.97
2019-05-30T15:55:26.058Z,13.98
2019-05-30T15:57:53.142Z,13.94
2019-05-30T16:00:20.751Z,13.99
2019-05-30T16:02:49.199Z,13.98
2019-05-30T16:05:16.855Z,13.98
2019-05-30T16:07:45.718Z,14.01
2019-05-30T16:10:13.060Z,14.06
2019-05-30T16:12:40.314Z,14.06
2019-05-30T16:15:08.113Z,13.98
2019-05-30T16:17:35.232Z,13.98
2019-05-30T16:20:02.337Z,13.97
2019-05-30T16:22:29.423Z,13.94
2019-05-30T16:24:56.584Z,13.92
2019-05-30T16:27:24.144Z,13.87
2019-05-30T16:29:51.681Z,13.92
2019-05-30T16:32:22.193Z,13.92
2019-05-30T16:34:49.408Z,13.86
2019-05-30T16:37:16.511Z,13.90
2019-05-30T16:39:43.604Z,13.91
2019-05-30T16:42:11.269Z,13.84
2019-05-30T16:44:39.469Z,13.74
2019-05-30T16:47:06.780Z,13.66
2019-05-30T16:49:33.890Z,13.66
2019-05-30T16:52:02.826Z,13.70
2019-05-30T16:54:31.885Z,13.66
2019-05-30T16:56:59.049Z,13.63
2019-05-30T16:59:26.904Z,13.63
2019-05-30T17:01:58.237Z,13.59
2019-05-30T17:04:24.447Z,13.56
2019-05-30T17:06:52.648Z,13.50
2019-05-30T17:09:21.710Z,13.51
2019-05-30T17:11:49.244Z,13.50
2019-05-30T17:14:17.615Z,13.51
2019-05-30T17:16:45.944Z,13.51
2019-05-30T17:19:13.067Z,13.52
2019-05-30T17:21:40.135Z,13.54
2019-05-30T17:24:09.236Z,13.49
2019-05-30T17:26:36.388Z,13.52
2019-05-30T17:29:03.582Z,13.54
2019-05-30T17:31:30.806Z,13.53
2019-05-30T17:33:57.893Z,13.49
2019-05-30T17:36:26.942Z,13.49
2019-05-30T17:38:53.995Z,13.47
2019-05-30T17:41:21.197Z,13.44
2019-05-30T17:43:48.548Z,13.43
2019-05-30T17:46:15.590Z,13.39
2019-05-30T17:48:42.672Z,13.37
2019-05-30T17:51:09.743Z,13.33
2019-05-30T17:53:37.853Z,13.31
2019-05-30T17:56:04.949Z,13.25
2019-05-30T17:58:33.854Z,13.25
2019-05-30T18:01:00.959Z,13.25
2019-05-30T18:03:28.504Z,13.23
2019-05-30T18:05:55.820Z,13.17
2019-05-30T18:08:22.915Z,13.19
2019-05-30T18:10:53.738Z,13.09
2019-05-30T18:13:19.044Z,13.12
2019-05-30T18:15:46.375Z,13.13
2019-05-30T18:18:13.547Z,13.14
2019-05-30T18:20:48.570Z,13.07
2019-05-30T18:23:09.773Z,13.10
2019-05-30T18:25:38.742Z,13.08
2019-05-30T18:28:07.650Z,13.08
2019-05-30T18:30:40.298Z,13.08
2019-05-30T18:33:07.469Z,13.09
2019-05-30T18:35:34.503Z,13.12
2019-05-30T18:38:02.280Z,13.08
2019-05-30T18:40:30.963Z,13.11
2019-05-30T18:42:59.940Z,13.05
2019-05-30T18:45:38.460Z,13.09
2019-05-30T18:48:05.887Z,13.08
2019-05-30T18:50:33.517Z,13.10
2019-05-30T18:53:00.738Z,13.07
2019-05-30T18:55:30.782Z,13.04
2019-05-30T18:57:58.320Z,13.03
2019-05-30T19:00:29.626Z,13.05
2019-05-30T19:02:57.771Z,13.06
2019-05-30T19:05:28.564Z,13.05
2019-05-30T19:07:56.015Z,13.04
2019-05-30T19:10:24.315Z,12.99
2019-05-30T19:12:51.577Z,13.00
2019-05-30T19:15:19.001Z,12.98
2019-05-30T19:17:46.092Z,13.00
2019-05-30T19:20:14.532Z,13.01
2019-05-30T19:22:41.964Z,12.96
2019-05-30T19:25:10.769Z,12.96
2019-05-30T19:27:39.683Z,12.98
2019-05-30T19:30:08.719Z,12.96
2019-05-30T19:32:36.956Z,12.96
2019-05-30T19:35:07.611Z,12.94
2019-05-30T19:37:35.394Z,12.96
2019-05-30T19:40:03.306Z,12.91
2019-05-30T19:42:31.440Z,12.90
2019-05-30T19:44:58.801Z,12.90
2019-05-30T19:47:25.875Z,12.94
2019-05-30T19:49:54.071Z,12.94
2019-05-30T19:52:21.155Z,12.92
2019-05-30T19:54:48.289Z,12.90
2019-05-30T19:57:15.585Z,12.87
2019-05-30T19:59:42.676Z,12.84
2019-05-30T20:02:09.729Z,12.82
2019-05-30T20:04:37.050Z,12.79
2019-05-30T20:07:04.237Z,12.78
2019-05-30T20:09:32.450Z,12.75
2019-05-30T20:12:03.866Z,12.74
2019-05-30T20:14:30.925Z,12.71
2019-05-30T20:16:58.047Z,12.71
2019-05-30T20:19:25.327Z,12.69
2019-05-30T20:21:52.415Z,12.64
2019-05-30T20:24:19.619Z,12.64
2019-05-30T20:26:47.764Z,12.64
2019-05-30T20:29:14.951Z,12.65
2019-05-30T20:31:43.495Z,12.65
2019-05-30T20:34:10.873Z,12.64
2019-05-30T20:36:38.769Z,12.66
2019-05-30T20:39:07.178Z,12.66
2019-05-30T20:41:34.802Z,12.67
2019-05-30T20:44:02.073Z,12.64
2019-05-30T20:46:29.254Z,12.63
2019-05-30T20:48:56.382Z,12.62
2019-05-30T20:51:23.494Z,12.62
2019-05-30T20:53:50.992Z,12.64
2019-05-30T20:56:18.114Z,12.66
2019-05-30T20:58:45.796Z,12.67
2019-05-30T21:01:14.865Z,12.71
2019-05-30T21:03:43.826Z,12.70
2019-05-30T21:06:12.279Z,12.70
2019-05-30T21:08:41.177Z,12.70
2019-05-30T21:11:10.531Z,12.70
2019-05-30T21:13:40.269Z,12.70
2019-05-30T21:16:09.438Z,12.71
2019-05-30T21:18:38.211Z,12.71
2019-05-30T21:21:05.365Z,12.72
2019-05-30T21:23:32.399Z,12.74
2019-05-30T21:25:59.484Z,12.73
2019-05-30T21:28:39.172Z,12.76
2019-05-30T21:31:06.289Z,12.78
2019-05-30T21:33:33.417Z,12.77
2019-05-30T21:36:01.576Z,12.81
2019-05-30T21:38:31.767Z,12.84
2019-05-30T21:40:59.174Z,12.87
2019-05-30T21:43:27.333Z,12.90
2019-05-30T21:45:54.420Z,12.93
2019-05-30T21:48:21.537Z,12.95
2019-05-30T21:50:49.949Z,12.98
2019-05-30T21:53:17.622Z,12.98
2019-05-30T21:55:45.980Z,13.00
2019-05-30T21:58:13.168Z,13.02
2019-05-30T22:01:26.321Z,13.03
2019-05-30T22:03:56.031Z,13.04
2019-05-30T22:06:23.182Z,13.05
2019-05-30T22:11:31.439Z,13.17
2019-05-30T22:14:01.572Z,13.14
2019-05-30T22:16:28.642Z,13.14
2019-05-30T22:18:55.745Z,13.14
2019-05-30T22:21:24.017Z,13.14
2019-05-30T22:23:52.403Z,13.14
2019-05-30T22:26:19.769Z,13.12
2019-05-30T22:28:48.348Z,13.12
2019-05-30T22:31:15.580Z,13.10
2019-05-30T22:33:44.687Z,13.11
2019-05-30T22:36:12.061Z,13.11
2019-05-30T22:39:04.842Z,13.08
2019-05-30T22:41:31.251Z,13.04
2019-05-30T22:44:00.451Z,13.02
2019-05-30T22:46:29.427Z,13.01
2019-05-30T22:48:58.089Z,13.00
2019-05-30T22:51:27.557Z,12.99
2019-05-30T22:53:57.444Z,12.93
2019-05-30T22:56:27.385Z,12.90
2019-05-30T22:58:55.725Z,12.88
2019-05-30T23:01:23.046Z,12.86
2019-05-30T23:03:52.617Z,12.87
2019-05-30T23:06:21.798Z,12.88
2019-05-30T23:08:55.288Z,12.89
2019-05-30T23:11:24.559Z,12.89
2019-05-30T23:13:52.070Z,12.92
2019-05-30T23:16:19.386Z,12.92
2019-05-30T23:18:48.625Z,12.94
2019-05-30T23:21:17.128Z,12.94
2019-05-30T23:23:44.295Z,12.97
2019-05-30T23:26:11.505Z,13.00
2019-05-30T23:28:39.010Z,12.99
2019-05-30T23:31:07.756Z,12.99
2019-05-30T23:33:36.246Z,13.00
2019-05-30T23:36:03.678Z,13.00
2019-05-30T23:38:30.751Z,13.01
2019-05-30T23:40:59.170Z,13.02
2019-05-30T23:43:28.045Z,13.03
2019-05-30T23:45:55.761Z,13.04
2019-05-30T23:48:23.077Z,13.05
2019-05-30T23:50:55.999Z,13.07
2019-05-30T23:53:24.231Z,13.09
2019-05-30T23:55:54.264Z,13.11
2019-05-30T23:58:23.997Z,13.12
